Terminal Aerodrome Forecast
Issued by NWS

Home | Current Version | Previous Version | Text Only | Print | Product List | Glossary On
Versions: 1 2 3 4 5 6 7 8 9 10 11 12 13 14 15 16 17 18 19 20 21 22 23 24 25 26 27 28 29 30 31 32 33 34 35 36 37 38 39 40
000
FTUS45 KBOI 161232 AAA
TAFTWF
TAF AMD
KTWF 161232Z 1613/1712 24015KT P6SM OVC005
     FM161400 25014G21KT 5SM BR FEW008 BKN015
     FM170200 23009KT 3SM BR OVC010=

USA.gov is the U.S. government's official web portal to all federal, state and local government web resources and services.